createdAt,value
2023-04-04T05:02:26.344Z,5.50
2023-04-04T05:12:37.132Z,5.50
2023-04-04T05:17:42.137Z,5.50
2023-04-04T05:22:46.501Z,5.40
2023-04-04T05:27:50.929Z,5.30
2023-04-04T05:32:56.919Z,5.10
2023-04-04T05:38:01.670Z,5.10
2023-04-04T05:43:06.714Z,5.10
2023-04-04T05:48:12.652Z,5.10
2023-04-04T05:53:21.188Z,5.20
2023-04-04T05:58:26.401Z,5.20
2023-04-04T06:03:31.897Z,5.20
2023-04-04T06:08:46.651Z,5.20
2023-04-04T06:13:55.134Z,5.20
2023-04-04T06:19:01.144Z,5.20
2023-04-04T06:24:05.215Z,5.50
2023-04-04T06:34:14.894Z,5.70
2023-04-04T06:49:30.835Z,6.10
2023-04-04T06:59:38.365Z,6.50
2023-04-04T07:04:43.380Z,7.00
2023-04-04T07:09:47.289Z,6.90
2023-04-04T07:14:50.885Z,7.20
2023-04-04T07:19:55.936Z,7.60
2023-04-04T07:35:09.759Z,8.40
2023-04-04T07:50:22.771Z,9.20
2023-04-04T08:05:35.767Z,9.60
2023-04-04T08:15:43.593Z,9.60
2023-04-04T08:20:48.619Z,10.10
2023-04-04T08:30:56.891Z,11.20
2023-04-04T08:36:01.968Z,11.30
2023-04-04T08:51:18.734Z,12.90
2023-04-04T09:06:35.247Z,14.40
2023-04-04T09:11:41.476Z,14.90
2023-04-04T09:21:51.695Z,16.20
2023-04-04T09:37:07.676Z,18.20
2023-04-04T09:52:35.845Z,20.30
2023-04-04T10:02:50.367Z,21.10
2023-04-04T10:07:55.850Z,21.20
2023-04-04T10:18:04.808Z,22.10
2023-04-04T10:23:10.042Z,22.40
2023-04-04T10:33:27.208Z,22.80
2023-04-04T10:38:41.861Z,22.90
2023-04-04T10:43:48.600Z,23.20
2023-04-04T10:53:57.653Z,23.60
2023-04-04T10:59:13.453Z,23.90
2023-04-04T11:04:20.338Z,24.40
2023-04-04T11:09:54.030Z,24.70
2023-04-04T11:15:10.335Z,25.20
2023-04-04T11:20:17.910Z,25.60
2023-04-04T11:25:31.710Z,25.50
2023-04-04T11:30:48.229Z,25.30
2023-04-04T11:35:51.965Z,25.40
2023-04-04T11:40:57.085Z,25.50
2023-04-04T11:46:09.020Z,25.90
2023-04-04T11:51:13.016Z,26.00
2023-04-04T11:56:18.375Z,26.40
2023-04-04T12:01:22.306Z,26.30
2023-04-04T12:06:27.237Z,26.50
2023-04-04T12:11:34.878Z,26.50
2023-04-04T12:16:39.583Z,26.60
2023-04-04T12:26:50.026Z,26.80
2023-04-04T12:31:56.500Z,26.80
2023-04-04T12:37:01.858Z,26.80
2023-04-04T12:42:07.646Z,26.50
2023-04-04T12:47:14.116Z,26.60
2023-04-04T12:52:19.707Z,27.10
2023-04-04T12:57:27.669Z,27.30
2023-04-04T13:02:31.512Z,27.20
2023-04-04T13:07:43.109Z,27.40
2023-04-04T13:13:00.289Z,27.40
2023-04-04T13:18:15.702Z,27.40
2023-04-04T13:28:26.319Z,27.20
2023-04-04T13:38:36.151Z,27.00
2023-04-04T13:43:41.320Z,26.60
2023-04-04T13:53:49.244Z,26.70
2023-04-04T13:58:54.900Z,26.80
2023-04-04T14:03:58.726Z,26.80
2023-04-04T14:09:02.586Z,26.70
2023-04-04T14:14:07.536Z,26.70
2023-04-04T14:19:11.395Z,26.60
2023-04-04T14:29:20.556Z,26.40
2023-04-04T14:34:26.596Z,26.60
2023-04-04T14:39:30.825Z,26.60
2023-04-04T14:44:36.173Z,26.50
2023-04-04T14:49:40.318Z,26.30
2023-04-04T14:54:44.213Z,26.40
2023-04-04T14:59:49.241Z,25.20
2023-04-04T15:04:52.931Z,25.20
2023-04-04T15:09:57.325Z,24.70
2023-04-04T15:15:02.346Z,24.20
2023-04-04T15:20:07.054Z,23.70
2023-04-04T15:25:11.274Z,23.10
2023-04-04T15:30:17.064Z,22.60
2023-04-04T15:35:21.898Z,22.10
2023-04-04T15:40:25.791Z,21.60
2023-04-04T15:45:30.866Z,21.20
2023-04-04T15:50:34.508Z,20.90
2023-04-04T16:00:47.393Z,20.20
2023-04-04T16:05:51.059Z,20.00
2023-04-04T16:15:59.863Z,19.50
2023-04-04T16:21:04.200Z,19.40
2023-04-04T16:26:08.846Z,19.20
2023-04-04T16:31:15.504Z,18.90
2023-04-04T16:36:19.165Z,18.60
2023-04-04T16:41:22.772Z,18.40
2023-04-04T16:46:28.262Z,18.30
2023-04-04T16:51:32.212Z,18.20
2023-04-04T16:56:36.409Z,18.10
2023-04-04T17:01:41.656Z,18.00
2023-04-04T17:06:46.011Z,17.90
2023-04-04T17:11:49.878Z,17.80
2023-04-04T17:16:55.760Z,17.60
2023-04-04T17:21:59.641Z,17.50
2023-04-04T17:27:03.274Z,17.40
2023-04-04T17:32:08.316Z,17.20
2023-04-04T17:37:13.261Z,17.10
2023-04-04T17:42:16.885Z,17.10
2023-04-04T17:47:21.813Z,17.00
2023-04-04T17:52:25.364Z,16.90
2023-04-04T17:57:28.909Z,16.70
2023-04-04T18:02:33.852Z,16.50
2023-04-04T18:07:37.467Z,16.10
2023-04-04T18:12:41.243Z,16.40
2023-04-04T18:17:46.781Z,15.80
2023-04-04T18:22:50.925Z,15.60
2023-04-04T18:27:54.901Z,15.50
2023-04-04T18:48:13.661Z,14.80
2023-04-04T19:18:40.038Z,13.80
2023-04-04T19:49:12.640Z,13.00
2023-04-04T19:54:16.808Z,12.90
2023-04-04T19:59:48.415Z,12.80
2023-04-04T20:20:12.152Z,12.50
2023-04-04T20:25:40.932Z,12.40
2023-04-04T21:06:28.732Z,11.40
2023-04-04T21:11:35.418Z,11.40
2023-04-04T21:16:39.366Z,11.40
2023-04-04T21:21:44.361Z,11.40
2023-04-04T21:26:49.730Z,11.30
2023-04-04T21:31:55.653Z,11.20
2023-04-04T21:37:03.843Z,11.00
2023-04-04T21:42:09.065Z,10.90
2023-04-04T21:47:14.568Z,10.80
2023-04-04T21:52:20.767Z,10.70
2023-04-04T21:57:24.315Z,10.60
2023-04-04T22:02:27.907Z,10.50
2023-04-04T22:07:33.196Z,10.40
2023-04-04T22:12:39.965Z,10.40
2023-04-04T22:17:43.643Z,10.30
2023-04-04T22:22:48.646Z,10.30
2023-04-04T22:27:52.151Z,10.10
